createdAt,value
2022-11-03T00:01:49.010Z,98692.31
2022-11-03T00:04:18.848Z,98694.00
2022-11-03T00:06:48.578Z,98690.22
2022-11-03T00:09:17.117Z,98698.06
2022-11-03T00:11:46.222Z,98694.94
2022-11-03T00:14:14.783Z,98698.66
2022-11-03T00:16:41.829Z,98706.47
2022-11-03T00:19:10.676Z,98701.59
2022-11-03T00:21:38.151Z,98691.19
2022-11-03T00:24:05.819Z,98690.59
2022-11-03T00:26:35.158Z,98702.91
2022-11-03T00:29:07.212Z,98701.94
2022-11-03T00:31:35.987Z,98705.41
2022-11-03T00:34:04.230Z,98710.84
2022-11-03T00:36:39.665Z,98712.56
2022-11-03T00:39:07.087Z,98707.44
2022-11-03T00:41:33.980Z,98711.09
2022-11-03T00:44:01.058Z,98706.09
2022-11-03T00:46:28.918Z,98705.09
2022-11-03T00:48:56.259Z,98703.03
2022-11-03T00:51:26.230Z,98707.34
2022-11-03T00:54:01.165Z,98704.66
2022-11-03T00:56:46.402Z,98708.97
2022-11-03T00:59:13.365Z,98706.38
2022-11-03T01:01:46.805Z,98708.47
2022-11-03T01:04:52.131Z,98717.28
2022-11-03T01:07:21.366Z,98722.44
2022-11-03T01:09:48.319Z,98720.34
2022-11-03T01:12:18.132Z,98714.59
2022-11-03T01:14:53.455Z,98714.22
2022-11-03T01:17:23.626Z,98716.78
2022-11-03T01:19:50.630Z,98709.69
2022-11-03T01:22:18.637Z,98708.22
2022-11-03T01:24:46.177Z,98702.56
2022-11-03T01:27:16.306Z,98706.63
2022-11-03T01:29:43.652Z,98710.31
2022-11-03T01:32:11.145Z,98700.84
2022-11-03T01:34:38.903Z,98702.56
2022-11-03T01:37:06.412Z,98702.94
2022-11-03T01:39:33.594Z,98702.44
2022-11-03T01:42:00.858Z,98700.63
2022-11-03T01:44:31.218Z,98700.03
2022-11-03T01:47:26.437Z,98696.19
2022-11-03T01:50:00.946Z,98695.59
2022-11-03T01:52:39.800Z,98706.00
2022-11-03T01:55:13.741Z,98695.81
2022-11-03T01:57:47.704Z,98700.88
2022-11-03T02:00:15.214Z,98697.19
2022-11-03T02:02:42.840Z,98699.28
2022-11-03T02:05:13.188Z,98694.00
2022-11-03T02:07:48.941Z,98711.16
2022-11-03T02:10:16.210Z,98712.63
2022-11-03T02:12:44.409Z,98720.94
2022-11-03T02:15:16.791Z,98710.44
2022-11-03T02:17:46.845Z,98711.41
2022-11-03T02:20:21.546Z,98708.09
2022-11-03T02:23:22.226Z,98712.88
2022-11-03T02:25:55.618Z,98711.75
2022-11-03T02:28:25.685Z,98705.88
2022-11-03T02:30:59.926Z,98709.94
2022-11-03T02:33:58.088Z,98706.75
2022-11-03T02:36:30.822Z,98707.22
2022-11-03T02:39:03.600Z,98710.91
2022-11-03T02:41:37.616Z,98717.03
2022-11-03T02:44:15.088Z,98718.91
2022-11-03T02:46:45.220Z,98725.13
2022-11-03T02:49:12.164Z,98722.44
2022-11-03T02:51:39.603Z,98719.97
2022-11-03T02:54:19.545Z,98724.41
2022-11-03T02:56:54.244Z,98719.84
2022-11-03T02:59:30.099Z,98718.28
2022-11-03T03:02:09.447Z,98730.03
2022-11-03T03:04:57.547Z,98730.53
2022-11-03T03:07:29.566Z,98732.22
2022-11-03T03:09:59.697Z,98740.66
2022-11-03T03:12:27.897Z,98734.41
2022-11-03T03:14:57.148Z,98741.50
2022-11-03T03:17:42.339Z,98737.56
2022-11-03T03:20:20.653Z,98737.19
2022-11-03T03:22:57.284Z,98730.50
2022-11-03T03:25:34.562Z,98726.78
2022-11-03T03:28:11.797Z,98724.09
2022-11-03T03:30:40.320Z,98730.72
2022-11-03T03:33:09.874Z,98738.47
2022-11-03T03:35:41.769Z,98731.72
2022-11-03T03:38:15.329Z,98725.84
2022-11-03T03:40:47.796Z,98727.28
2022-11-03T03:43:15.507Z,98729.38
2022-11-03T03:45:45.673Z,98735.09
2022-11-03T03:48:13.903Z,98735.59
2022-11-03T03:50:43.380Z,98733.84
2022-11-03T03:53:13.188Z,98739.00
2022-11-03T03:55:43.486Z,98734.56
2022-11-03T03:58:13.788Z,98735.78
2022-11-03T04:00:42.207Z,98721.19
2022-11-03T04:03:21.219Z,98728.78
2022-11-03T04:05:48.386Z,98726.19
2022-11-03T04:08:16.983Z,98722.03
2022-11-03T04:11:03.662Z,98728.53
2022-11-03T04:13:49.553Z,98728.84
2022-11-03T04:16:35.055Z,98724.59
2022-11-03T04:19:21.118Z,98724.16
2022-11-03T04:22:06.608Z,98725.00
2022-11-03T04:24:33.576Z,98717.03
2022-11-03T04:27:37.436Z,98720.53
2022-11-03T04:30:15.635Z,98726.72
2022-11-03T04:32:44.374Z,98727.41
2022-11-03T04:35:20.683Z,98724.50
2022-11-03T04:38:09.467Z,98709.31
2022-11-03T04:40:44.452Z,98715.38
2022-11-03T04:43:17.846Z,98718.28
2022-11-03T04:45:46.604Z,98718.75
2022-11-03T04:48:25.655Z,98727.38
2022-11-03T04:50:56.021Z,98727.88
2022-11-03T04:53:23.824Z,98732.38
2022-11-03T04:55:53.701Z,98743.47
2022-11-03T04:58:28.716Z,98732.09
2022-11-03T05:01:01.403Z,98728.28
2022-11-03T05:03:34.091Z,98726.53
2022-11-03T05:06:26.820Z,98729.41
2022-11-03T05:08:58.810Z,98729.75
2022-11-03T05:11:36.945Z,98734.03
2022-11-03T05:14:21.040Z,98730.25
2022-11-03T05:16:50.892Z,98731.75
2022-11-03T05:19:35.436Z,98732.91
2022-11-03T05:22:04.341Z,98735.78
2022-11-03T05:24:33.184Z,98735.66
2022-11-03T05:27:00.850Z,98731.66
2022-11-03T05:29:37.589Z,98731.41
2022-11-03T05:32:21.787Z,98735.84
2022-11-03T05:34:51.507Z,98738.19
2022-11-03T05:37:35.685Z,98742.25
2022-11-03T05:40:15.107Z,98748.59
2022-11-03T05:42:45.297Z,98756.69
2022-11-03T05:45:26.918Z,98755.47
2022-11-03T05:47:55.840Z,98763.34
2022-11-03T05:50:26.208Z,98765.09
2022-11-03T05:53:22.685Z,98772.69
2022-11-03T05:55:50.446Z,98773.09
2022-11-03T05:58:27.677Z,98779.63
2022-11-03T06:00:58.048Z,98785.50
2022-11-03T06:03:29.295Z,98794.84
2022-11-03T06:05:57.484Z,98795.38
2022-11-03T06:08:27.952Z,98794.66
2022-11-03T06:10:58.515Z,98795.63
2022-11-03T06:13:34.425Z,98797.84
2022-11-03T06:16:10.266Z,98803.13
2022-11-03T06:18:38.571Z,98801.81
2022-11-03T06:21:14.218Z,98804.50
2022-11-03T06:23:42.350Z,98814.81
2022-11-03T06:26:18.379Z,98818.78
2022-11-03T06:28:47.283Z,98809.97
2022-11-03T06:31:32.065Z,98799.28
2022-11-03T06:33:59.917Z,98796.75
2022-11-03T06:36:32.323Z,98802.63
2022-11-03T06:39:09.774Z,98803.50
2022-11-03T06:41:37.435Z,98793.03
2022-11-03T06:44:22.299Z,98797.72
2022-11-03T06:46:49.285Z,98803.63
2022-11-03T06:49:28.609Z,98808.13
2022-11-03T06:52:02.409Z,98812.56
2022-11-03T06:54:29.470Z,98814.63
2022-11-03T06:56:56.349Z,98815.44
2022-11-03T06:59:24.661Z,98811.03
2022-11-03T07:01:55.840Z,98813.94
2022-11-03T07:04:28.732Z,98804.50
2022-11-03T07:07:01.194Z,98812.91
2022-11-03T07:09:28.210Z,98804.47
2022-11-03T07:11:59.924Z,98803.41
2022-11-03T07:14:33.184Z,98797.97
2022-11-03T07:17:02.297Z,98797.56
2022-11-03T07:19:37.544Z,98801.00
2022-11-03T07:22:26.207Z,98803.44
2022-11-03T07:24:56.846Z,98804.22
2022-11-03T07:27:34.605Z,98798.84
2022-11-03T07:30:16.335Z,98792.47
2022-11-03T07:32:43.528Z,98794.84
2022-11-03T07:35:53.382Z,98792.00
2022-11-03T07:38:21.371Z,98787.63
2022-11-03T07:40:50.466Z,98795.25
2022-11-03T07:43:25.476Z,98788.63
2022-11-03T07:45:53.925Z,98783.09
2022-11-03T07:48:27.415Z,98780.28
2022-11-03T07:51:00.851Z,98770.03
2022-11-03T07:53:39.674Z,98772.91
2022-11-03T07:56:23.433Z,98764.66
2022-11-03T07:58:54.395Z,98771.63
2022-11-03T08:01:40.607Z,98768.63
2022-11-03T08:04:10.629Z,98768.75
2022-11-03T08:06:37.781Z,98762.03
2022-11-03T08:09:06.006Z,98763.16
2022-11-03T08:11:33.035Z,98766.88
2022-11-03T08:14:00.048Z,98759.97
2022-11-03T08:16:27.053Z,98759.47
2022-11-03T08:18:54.348Z,98749.75
2022-11-03T08:21:21.377Z,98746.13
2022-11-03T08:23:48.417Z,98740.41
2022-11-03T08:26:16.403Z,98742.56
2022-11-03T08:28:43.490Z,98744.13
2022-11-03T08:31:12.922Z,98737.75
2022-11-03T08:33:40.943Z,98732.84
2022-11-03T08:36:11.507Z,98729.75
2022-11-03T08:38:38.750Z,98724.56
2022-11-03T08:41:05.953Z,98719.97
2022-11-03T08:43:32.992Z,98718.13
2022-11-03T08:46:08.383Z,98719.75
2022-11-03T08:48:42.721Z,98718.34
2022-11-03T08:51:10.522Z,98714.84
2022-11-03T08:53:38.689Z,98717.34
2022-11-03T08:56:10.353Z,98706.81
2022-11-03T08:58:39.771Z,98717.47
2022-11-03T09:01:08.235Z,98709.41
2022-11-03T09:03:35.437Z,98705.06
2022-11-03T09:06:02.666Z,98703.66
2022-11-03T09:11:16.656Z,98706.66
2022-11-03T09:13:43.642Z,98702.84
2022-11-03T09:16:10.552Z,98700.00
2022-11-03T09:18:37.772Z,98692.50
2022-11-03T09:21:04.772Z,98690.28
2022-11-03T09:23:31.794Z,98692.19
2022-11-03T09:25:58.794Z,98687.94
2022-11-03T09:28:25.818Z,98686.94
2022-11-03T09:30:52.867Z,98673.28
2022-11-03T09:33:19.831Z,98676.53
2022-11-03T09:35:47.165Z,98664.75
2022-11-03T09:38:14.440Z,98665.47
2022-11-03T09:40:41.432Z,98659.25
2022-11-03T09:43:09.144Z,98657.53
2022-11-03T09:45:36.524Z,98656.19
2022-11-03T09:48:04.225Z,98651.47
2022-11-03T09:50:32.316Z,98651.81
2022-11-03T09:52:59.406Z,98653.84
2022-11-03T09:55:27.797Z,98638.34
2022-11-03T09:57:57.823Z,98628.72
2022-11-03T10:00:26.348Z,98626.47
2022-11-03T10:02:54.672Z,98630.69
2022-11-03T10:05:27.334Z,98625.34
2022-11-03T10:08:01.690Z,98625.63
2022-11-03T10:10:29.711Z,98618.31
2022-11-03T10:12:56.789Z,98622.56
2022-11-03T10:15:25.645Z,98610.84
2022-11-03T10:17:53.489Z,98603.06
2022-11-03T10:20:22.798Z,98601.84
2022-11-03T10:22:54.814Z,98594.16
2022-11-03T10:25:36.541Z,98588.91
2022-11-03T10:28:15.939Z,98589.88
2022-11-03T10:31:14.291Z,98583.88
2022-11-03T10:33:52.573Z,98576.44
2022-11-03T10:36:19.545Z,98574.06
2022-11-03T10:38:48.059Z,98572.31
2022-11-03T10:41:23.761Z,98564.50
2022-11-03T10:44:28.620Z,98564.31
2022-11-03T10:47:01.669Z,98559.88
2022-11-03T10:49:31.875Z,98555.81
2022-11-03T10:52:10.154Z,98552.44
2022-11-03T10:54:38.245Z,98543.75
2022-11-03T10:57:05.916Z,98542.81
2022-11-03T10:59:37.157Z,98542.97
2022-11-03T11:02:13.919Z,98524.69
2022-11-03T11:04:41.850Z,98518.53
2022-11-03T11:07:32.823Z,98521.06
2022-11-03T11:10:26.205Z,98520.88
2022-11-03T11:13:07.543Z,98517.09
2022-11-03T11:15:36.432Z,98512.91
2022-11-03T11:18:03.503Z,98507.91
2022-11-03T11:20:38.413Z,98505.78
2022-11-03T11:23:30.243Z,98503.59
2022-11-03T11:26:09.157Z,98497.25
2022-11-03T11:28:46.385Z,98493.09
2022-11-03T11:31:23.843Z,98484.16
2022-11-03T11:33:51.318Z,98479.84
2022-11-03T11:36:24.830Z,98479.50
2022-11-03T11:38:52.565Z,98467.81
2022-11-03T11:41:20.992Z,98470.78
2022-11-03T11:43:48.020Z,98454.34
2022-11-03T11:46:33.835Z,98456.09
2022-11-03T11:49:16.911Z,98452.44
2022-11-03T11:51:43.916Z,98448.38
2022-11-03T11:54:19.647Z,98446.31
2022-11-03T11:56:49.013Z,98444.28
2022-11-03T11:59:25.565Z,98443.38
2022-11-03T12:01:57.164Z,98430.25
2022-11-03T12:04:26.788Z,98427.16
2022-11-03T12:06:54.100Z,98433.28
2022-11-03T12:09:24.202Z,98420.34
2022-11-03T12:11:56.810Z,98415.00
2022-11-03T12:14:40.509Z,98413.97
2022-11-03T12:17:17.286Z,98404.69
2022-11-03T12:19:45.823Z,98397.53
2022-11-03T12:22:39.818Z,98404.19
2022-11-03T12:25:27.226Z,98397.75
2022-11-03T12:27:54.271Z,98391.91
2022-11-03T12:30:21.917Z,98392.75
2022-11-03T12:32:49.101Z,98386.06
2022-11-03T12:35:16.553Z,98383.88
2022-11-03T12:37:43.932Z,98379.34
2022-11-03T12:40:13.551Z,98370.59
2022-11-03T12:42:40.649Z,98372.72
2022-11-03T12:45:08.937Z,98367.84
2022-11-03T12:47:35.931Z,98359.50
2022-11-03T12:50:04.461Z,98370.19
2022-11-03T12:52:32.688Z,98363.38
2022-11-03T12:54:59.758Z,98358.00
2022-11-03T12:57:26.796Z,98359.00
2022-11-03T12:59:53.844Z,98351.63
2022-11-03T13:02:21.025Z,98351.22
2022-11-03T13:04:48.365Z,98351.97
2022-11-03T13:07:18.072Z,98350.13
2022-11-03T13:09:47.580Z,98347.41
2022-11-03T13:12:32.955Z,98340.34
2022-11-03T13:15:03.295Z,98339.28
2022-11-03T13:17:40.234Z,98342.91
2022-11-03T13:20:14.840Z,98340.25
2022-11-03T13:22:42.140Z,98346.38
2022-11-03T13:25:09.881Z,98331.91
2022-11-03T13:27:37.486Z,98336.19
2022-11-03T13:30:05.912Z,98332.28
2022-11-03T13:32:33.137Z,98333.84
2022-11-03T13:35:00.258Z,98332.41
2022-11-03T13:37:27.319Z,98333.00
2022-11-03T13:39:54.278Z,98332.28
2022-11-03T13:42:21.352Z,98336.47
2022-11-03T13:44:48.426Z,98330.81
2022-11-03T13:47:15.475Z,98326.44
2022-11-03T13:50:12.625Z,98336.97
2022-11-03T13:52:29.463Z,98333.31
2022-11-03T14:00:30.533Z,98329.53
2022-11-03T14:05:44.579Z,98329.16
2022-11-03T14:08:11.592Z,98328.78
2022-11-03T14:10:38.725Z,98325.84
2022-11-03T14:13:06.042Z,98323.38
2022-11-03T14:15:34.804Z,98330.88
2022-11-03T14:18:01.801Z,98329.50
2022-11-03T14:23:00.871Z,98321.63
2022-11-03T14:25:27.891Z,98322.44
2022-11-03T14:27:55.033Z,98325.53
2022-11-03T14:30:22.063Z,98337.00
2022-11-03T14:32:49.036Z,98319.84
2022-11-03T14:35:16.052Z,98314.63
2022-11-03T14:37:43.203Z,98322.25
2022-11-03T14:40:30.502Z,98319.97
2022-11-03T14:42:57.554Z,98323.03
2022-11-03T14:45:24.669Z,98322.25
2022-11-03T14:47:51.620Z,98319.97
2022-11-03T14:50:18.637Z,98318.94
2022-11-03T14:52:45.615Z,98322.41
2022-11-03T14:55:12.695Z,98319.09
2022-11-03T14:57:39.745Z,98318.75
2022-11-03T15:00:07.581Z,98325.16
2022-11-03T15:02:34.805Z,98320.34
2022-11-03T15:05:01.773Z,98310.81
2022-11-03T15:07:28.935Z,98315.53
2022-11-03T15:09:56.352Z,98318.75
2022-11-03T15:12:23.420Z,98318.16
2022-11-03T15:14:51.157Z,98312.44
2022-11-03T15:17:18.224Z,98311.38
2022-11-03T15:19:45.247Z,98317.47
2022-11-03T15:22:12.751Z,98304.09
2022-11-03T15:27:27.910Z,98314.06
2022-11-03T15:29:55.482Z,98306.75
2022-11-03T15:32:22.828Z,98307.66
2022-11-03T15:34:49.765Z,98301.22
2022-11-03T15:37:17.667Z,98309.06
2022-11-03T15:39:44.633Z,98306.16
2022-11-03T15:42:11.601Z,98298.59
2022-11-03T15:44:38.640Z,98300.31
2022-11-03T15:47:05.684Z,98303.31
2022-11-03T15:49:33.212Z,98294.47
2022-11-03T15:52:00.206Z,98298.06
2022-11-03T15:54:27.212Z,98300.38
2022-11-03T15:56:54.140Z,98306.44
2022-11-03T15:59:21.148Z,98306.41
2022-11-03T16:01:48.431Z,98307.69
2022-11-03T16:04:16.392Z,98301.41
2022-11-03T16:07:13.438Z,98313.53
2022-11-03T16:09:30.438Z,98312.97
2022-11-03T16:11:58.999Z,98306.41
2022-11-03T16:14:27.022Z,98307.53
2022-11-03T16:16:54.056Z,98310.81
2022-11-03T16:19:21.055Z,98312.63
2022-11-03T16:21:47.989Z,98313.00
2022-11-03T16:24:15.153Z,98310.00
2022-11-03T16:26:42.176Z,98313.13
2022-11-03T16:29:09.430Z,98314.50
2022-11-03T16:31:36.543Z,98323.38
2022-11-03T16:34:04.817Z,98327.31
2022-11-03T16:36:31.822Z,98320.69
2022-11-03T16:38:59.094Z,98317.28
2022-11-03T16:41:26.226Z,98325.13
2022-11-03T16:43:53.377Z,98329.38
2022-11-03T16:46:20.418Z,98322.72
2022-11-03T16:48:47.433Z,98332.44
2022-11-03T16:51:14.401Z,98327.84
2022-11-03T16:53:41.413Z,98329.53
2022-11-03T16:56:08.348Z,98329.19
2022-11-03T16:58:35.342Z,98332.94
2022-11-03T17:01:02.998Z,98323.06
2022-11-03T17:03:30.444Z,98325.97
2022-11-03T17:05:58.052Z,98324.41
2022-11-03T17:08:51.266Z,98326.47
2022-11-03T17:11:12.008Z,98321.19
2022-11-03T17:13:38.888Z,98316.63
2022-11-03T17:16:05.914Z,98327.16
2022-11-03T17:18:32.861Z,98329.03
2022-11-03T17:20:59.836Z,98334.84
2022-11-03T17:23:26.758Z,98329.91
2022-11-03T17:25:54.787Z,98323.75
2022-11-03T17:28:21.780Z,98320.50
2022-11-03T17:30:48.793Z,98320.00
2022-11-03T17:33:17.923Z,98319.66
2022-11-03T17:35:46.489Z,98317.47
2022-11-03T17:38:17.129Z,98314.25
2022-11-03T17:40:46.865Z,98325.13
2022-11-03T17:43:22.893Z,98321.06
2022-11-03T17:45:50.726Z,98326.81
2022-11-03T17:48:18.107Z,98318.31
2022-11-03T17:50:49.980Z,98328.69
2022-11-03T17:53:29.908Z,98324.22
2022-11-03T17:58:47.528Z,98321.56
2022-11-03T18:01:22.098Z,98318.63
2022-11-03T18:03:49.357Z,98322.28
2022-11-03T18:06:19.752Z,98322.38
2022-11-03T18:08:48.534Z,98324.69
2022-11-03T18:11:39.853Z,98313.53
2022-11-03T18:14:06.806Z,98314.13
2022-11-03T18:16:34.763Z,98315.22
2022-11-03T18:19:01.772Z,98312.09
2022-11-03T18:21:30.067Z,98315.53
2022-11-03T18:23:57.162Z,98306.63
2022-11-03T18:26:26.157Z,98308.25
2022-11-03T18:28:54.642Z,98308.25
2022-11-03T18:31:34.096Z,98312.91
2022-11-03T18:34:05.236Z,98304.66
2022-11-03T18:36:36.388Z,98303.13
2022-11-03T18:39:04.673Z,98308.97
2022-11-03T18:41:40.774Z,98307.56
2022-11-03T18:44:21.301Z,98315.31
2022-11-03T18:46:49.154Z,98312.06
2022-11-03T18:49:16.402Z,98313.91
2022-11-03T18:51:48.636Z,98311.50
2022-11-03T18:54:22.100Z,98317.06
2022-11-03T18:56:50.136Z,98319.09
2022-11-03T18:59:24.912Z,98317.06
2022-11-03T19:01:52.678Z,98316.53
2022-11-03T19:04:20.296Z,98318.25
2022-11-03T19:06:49.350Z,98314.97
2022-11-03T19:09:24.674Z,98322.56
2022-11-03T19:11:55.182Z,98312.16
2022-11-03T19:14:35.128Z,98323.47
2022-11-03T19:17:22.543Z,98311.53
2022-11-03T19:19:52.344Z,98314.97
2022-11-03T19:22:21.369Z,98321.97
2022-11-03T19:24:50.302Z,98325.59
2022-11-03T19:27:19.033Z,98324.31
2022-11-03T19:29:47.180Z,98327.31
2022-11-03T19:32:24.669Z,98322.94
2022-11-03T19:35:01.717Z,98322.31
2022-11-03T19:40:06.874Z,98324.28
2022-11-03T19:40:20.793Z,98320.84
2022-11-03T19:42:48.872Z,98320.44
2022-11-03T19:45:20.691Z,98317.59
2022-11-03T19:50:47.752Z,98324.19
2022-11-03T19:53:26.274Z,98318.38
2022-11-03T19:55:53.930Z,98322.25
2022-11-03T19:58:26.330Z,98320.84
2022-11-03T20:00:54.861Z,98323.00
2022-11-03T20:03:22.373Z,98324.13
2022-11-03T20:05:53.651Z,98324.25
2022-11-03T20:08:23.874Z,98321.88
2022-11-03T20:10:51.388Z,98317.03
2022-11-03T20:13:21.303Z,98319.72
2022-11-03T20:15:48.554Z,98328.44
2022-11-03T20:18:16.136Z,98321.44
2022-11-03T20:20:45.600Z,98327.16
2022-11-03T20:23:23.464Z,98326.53
2022-11-03T20:25:50.594Z,98319.44
2022-11-03T20:28:20.898Z,98315.19
2022-11-03T20:30:49.217Z,98326.59
2022-11-03T20:33:19.049Z,98328.56
2022-11-03T20:35:48.207Z,98331.44
2022-11-03T20:38:19.375Z,98327.44
2022-11-03T20:40:48.015Z,98330.56
2022-11-03T20:43:26.711Z,98330.16
2022-11-03T20:45:55.047Z,98333.41
2022-11-03T20:48:22.300Z,98334.69
2022-11-03T20:50:49.551Z,98336.09
2022-11-03T20:53:22.448Z,98339.34
2022-11-03T20:55:49.583Z,98324.44
2022-11-03T20:58:18.231Z,98320.84
2022-11-03T21:00:47.660Z,98320.59
2022-11-03T21:03:53.541Z,98311.19
2022-11-03T21:06:18.316Z,98316.56
2022-11-03T21:08:47.195Z,98309.88
2022-11-03T21:11:38.538Z,98321.78
2022-11-03T21:14:19.091Z,98315.09
2022-11-03T21:17:04.491Z,98311.81
2022-11-03T21:19:51.466Z,98304.84
2022-11-03T21:22:50.289Z,98305.97
2022-11-03T21:25:17.391Z,98300.00
2022-11-03T21:27:45.231Z,98295.88
2022-11-03T21:30:14.241Z,98299.28
2022-11-03T21:32:41.441Z,98300.56
2022-11-03T21:35:14.265Z,98301.97
2022-11-03T21:37:41.233Z,98299.91
2022-11-03T21:40:09.123Z,98296.78
2022-11-03T21:42:54.413Z,98298.00
2022-11-03T21:45:21.883Z,98302.97
2022-11-03T21:48:13.454Z,98299.09
2022-11-03T21:50:42.099Z,98306.16
2022-11-03T21:53:09.561Z,98310.81
2022-11-03T21:55:36.949Z,98309.66
2022-11-03T21:58:04.794Z,98309.31
2022-11-03T22:00:33.066Z,98308.16
2022-11-03T22:03:01.062Z,98306.47
2022-11-03T22:05:28.267Z,98301.88
2022-11-03T22:07:55.267Z,98296.13
2022-11-03T22:10:22.577Z,98293.81
2022-11-03T22:12:49.513Z,98295.66
2022-11-03T22:15:35.184Z,98295.66
2022-11-03T22:18:06.727Z,98303.38
2022-11-03T22:20:55.082Z,98289.63
2022-11-03T22:23:40.593Z,98294.53
2022-11-03T22:26:32.864Z,98294.81
2022-11-03T22:29:18.206Z,98287.78
2022-11-03T22:31:45.207Z,98288.81
2022-11-03T22:34:30.491Z,98287.38
2022-11-03T22:36:57.498Z,98280.28
2022-11-03T22:39:42.732Z,98278.56
2022-11-03T22:42:30.599Z,98288.47
2022-11-03T22:45:16.932Z,98287.63
2022-11-03T22:47:44.354Z,98293.88
2022-11-03T22:50:11.319Z,98290.59
2022-11-03T22:52:40.799Z,98295.00
2022-11-03T22:55:07.834Z,98289.88
2022-11-03T22:57:35.250Z,98290.25
2022-11-03T23:00:02.243Z,98280.72
2022-11-03T23:02:29.252Z,98282.94
2022-11-03T23:04:56.299Z,98277.06
2022-11-03T23:07:28.446Z,98284.19
2022-11-03T23:09:59.266Z,98284.31
2022-11-03T23:12:26.288Z,98288.00
2022-11-03T23:15:11.901Z,98290.94
2022-11-03T23:17:57.536Z,98280.16
2022-11-03T23:20:43.399Z,98277.72
2022-11-03T23:23:33.262Z,98278.97
2022-11-03T23:26:00.208Z,98271.16
2022-11-03T23:28:27.103Z,98272.28
2022-11-03T23:30:54.127Z,98275.09
2022-11-03T23:33:21.077Z,98274.97
2022-11-03T23:35:48.034Z,98273.34
2022-11-03T23:38:14.953Z,98270.03
2022-11-03T23:40:41.945Z,98272.84
2022-11-03T23:43:08.839Z,98263.09
2022-11-03T23:45:55.690Z,98259.06
2022-11-03T23:48:41.728Z,98258.72
2022-11-03T23:51:09.874Z,98257.22
2022-11-03T23:53:36.732Z,98252.97
2022-11-03T23:56:22.689Z,98261.03
2022-11-03T23:58:50.577Z,98255.91
